Silverton, CO

6:43 AM MDT on August 20, 2014 (GMT -0600)
Telluride Regional | Change Station
CLOSE
Current Station
Airport
Location: Telluride,
Elevation: 9078 ft
Nearby Weather Stations

Elev 9078 ft 37.95 °N, 107.91 °W | Updated 6 minutes ago

Overcast
Overcast
52 °F
Feels Like 52 °F
N
0
Wind Variable Wind from North

Today
High -- | Low -- °F
--% Chance of Precip.
Yesterday
High -- | Low -- °F
Precip. -- in
6:30 AM 7:56 PM
Waning Crescent, 22% visible
Pressure 30.26 in
Visibility 3.0 miles
Clouds Scattered Clouds 100 ft
Mostly Cloudy 3000 ft
Overcast 3800 ft
Dew Point 52 °F
Humidity 100%
Rainfall 0.03 in
Snow Depth 0 in , 0 in , 0 in
UV 0 out of 12
Pollen 5.60 out of 12
Air Quality Not available.
Flu Activity Not available.
METAR KTEX 201237Z AUTO 00000KT 3SM BR SCT001 BKN030 OVC038 11/11 A3026 RMK AO2 P0001

More Conditions Fewer Conditions

Pressure 30.26 in
Visibility 3.0 miles
Clouds Scattered Clouds 100 ft
Mostly Cloudy 3000 ft
Overcast 3800 ft
Dew Point 52 °F
Humidity 100%
Rainfall 0.03 in
Snow Depth 0 in , 0 in , 0 in
UV 0 out of 12
Pollen 5.60 out of 12
Air Quality Not available.
Flu Activity Not available.
METAR KTEX 201237Z AUTO 00000KT 3SM BR SCT001 BKN030 OVC038 11/11 A3026 RMK AO2 P0001

More Conditions Fewer Conditions

10-Day Weather Forecast

Almanac

Astronomy

Aug. 20, 2014 Rise Set
Actual Time 6:30 AM MDT 7:56 PM MDT
Civil Twilight 6:02 AM MDT 8:24 PM MDT
Nautical Twilight 5:29 AM MDT 8:57 PM MDT
Astronomical Twilight 4:54 AM MDT 9:32 PM MDT
Moon 2:14 AM MDT 4:42 PM MDT
Length of Visible Light 14h 21m
Length of Day
13h 26m
Tomorrow will be 2m 14s shorter.
Waning Crescent, 22% of the Moon is Illuminated
Today
Waning Crescent
Aug 25
New
Sep 2
First Quarter
Sep 8
Full
Sep 15
Last Quarter

Today's Extremes

State Highs State Lows

Community

WunderPhotos

Upload Photos

1,745,618 photos uploaded!

Nearby

Snow Depth

Station Depth Elevation
Molas Lake 0 in 10500 ft
Mineral Creek 0 in 10040 ft
Red Mountain Pass 0 in 11150 ft
Spud Mountain 0 in 10660 ft
Beartown 0 in 11600 ft

Earthquake Activity

City Distance Mag. Time & Date
No recent earthquake activity has been reported nearby.
Minimum magnitude displayed is 2.5.

Coastal Water Temperatures

Place Temperature
No Stations Reporting

Nearby Weather Stations